Terminal Aerodrome Forecast
Issued by NWS Melbourne, FL

Home | Current Version | Previous Version | Text Only | Print | Product List | Glossary On
Versions: 1 2 3 4 5 6 7 8 9 10 11 12 13 14 15 16 17 18 19 20 21 22 23
254
FTUS42 KMLB 271431 AAA
TAFMCO
TAF AMD
KMCO 271431Z 2715/2812 15005KT P6SM SCT025
     FM272000 12008KT P6SM SCT045
     FM280200 13003KT P6SM SKC=

USA.gov is the U.S. government's official web portal to all federal, state and local government web resources and services.